sensor_id;sensor_type;location;lat;lon;timestamp;pressure;altitude;pressure_sealevel;temperature;humidity
73422;BME280;61637;47.760;-122.022;2022-09-13T00:00:01;101253.06099999999;;;22.9;unknown
73422;BME280;61637;47.760;-122.022;2022-09-13T00:02:00;101253.06099999999;;;22.9;unknown
73422;BME280;61637;47.760;-122.022;2022-09-13T00:04:00;101253.06099999999;;;22.8;unknown
73422;BME280;61637;47.760;-122.022;2022-09-13T00:06:07;101253.06099999999;;;22.8;unknown
73422;BME280;61637;47.760;-122.022;2022-09-13T00:08:00;101253.06099999999;;;22.8;unknown
73422;BME280;61637;47.760;-122.022;2022-09-13T00:10:00;101253.06099999999;;;22.7;unknown
73422;BME280;61637;47.760;-122.022;2022-09-13T00:12:00;101253.06099999999;;;22.7;unknown
73422;BME280;61637;47.760;-122.022;2022-09-13T00:14:00;101253.06099999999;;;22.7;unknown
73422;BME280;61637;47.760;-122.022;2022-09-13T00:16:00;101253.06099999999;;;22.8;unknown
73422;BME280;61637;47.760;-122.022;2022-09-13T00:18:01;101253.06099999999;;;22.8;unknown
73422;BME280;61637;47.760;-122.022;2022-09-13T00:20:00;101253.06099999999;;;22.7;unknown
73422;BME280;61637;47.760;-122.022;2022-09-13T00:22:00;101253.06099999999;;;22.8;unknown
73422;BME280;61637;47.760;-122.022;2022-09-13T00:24:00;101253.06099999999;;;22.8;unknown
73422;BME280;61637;47.760;-122.022;2022-09-13T00:26:02;101253.06099999999;;;22.8;unknown
73422;BME280;61637;47.760;-122.022;2022-09-13T00:28:00;101253.06099999999;;;22.8;unknown
73422;BME280;61637;47.760;-122.022;2022-09-13T00:30:01;101253.06099999999;;;22.8;unknown
73422;BME280;61637;47.760;-122.022;2022-09-13T00:32:00;101253.06099999999;;;22.8;unknown
73422;BME280;61637;47.760;-122.022;2022-09-13T00:34:00;101253.06099999999;;;22.8;unknown
73422;BME280;61637;47.760;-122.022;2022-09-13T00:36:02;101253.06099999999;;;22.8;unknown
73422;BME280;61637;47.760;-122.022;2022-09-13T00:38:00;101253.06099999999;;;22.8;unknown
73422;BME280;61637;47.760;-122.022;2022-09-13T00:40:00;101253.06099999999;;;22.8;unknown
73422;BME280;61637;47.760;-122.022;2022-09-13T00:42:01;101253.06099999999;;;22.8;unknown
73422;BME280;61637;47.760;-122.022;2022-09-13T00:44:00;101253.06099999999;;;22.8;unknown
73422;BME280;61637;47.760;-122.022;2022-09-13T00:46:00;101253.06099999999;;;22.8;unknown
73422;BME280;61637;47.760;-122.022;2022-09-13T00:48:02;101253.06099999999;;;22.7;unknown
73422;BME280;61637;47.760;-122.022;2022-09-13T00:50:01;101253.06099999999;;;22.6;unknown
73422;BME280;61637;47.760;-122.022;2022-09-13T00:52:02;101253.06099999999;;;22.6;unknown
73422;BME280;61637;47.760;-122.022;2022-09-13T00:54:00;101253.06099999999;;;22.5;unknown
73422;BME280;61637;47.760;-122.022;2022-09-13T00:56:00;101253.06099999999;;;22.4;unknown
73422;BME280;61637;47.760;-122.022;2022-09-13T00:58:02;101253.06099999999;;;22.4;unknown
73422;BME280;61637;47.760;-122.022;2022-09-13T01:00:02;101253.06099999999;;;22.3;unknown
73422;BME280;61637;47.760;-122.022;2022-09-13T01:02:00;101253.06099999999;;;22.3;unknown
73422;BME280;61637;47.760;-122.022;2022-09-13T01:04:00;101253.06099999999;;;22.2;unknown
73422;BME280;61637;47.760;-122.022;2022-09-13T01:06:02;101253.06099999999;;;22.2;unknown
73422;BME280;61637;47.760;-122.022;2022-09-13T01:08:00;101253.06099999999;;;22.2;unknown
73422;BME280;61637;47.760;-122.022;2022-09-13T01:10:01;101253.06099999999;;;22.1;unknown
73422;BME280;61637;47.760;-122.022;2022-09-13T01:12:02;101253.06099999999;;;22.1;unknown
73422;BME280;61637;47.760;-122.022;2022-09-13T01:14:00;101253.06099999999;;;22.1;unknown
73422;BME280;61637;47.760;-122.022;2022-09-13T01:16:00;101253.06099999999;;;22.0;unknown
73422;BME280;61637;47.760;-122.022;2022-09-13T01:18:01;101253.06099999999;;;21.9;unknown
73422;BME280;61637;47.760;-122.022;2022-09-13T01:20:00;101253.06099999999;;;21.9;unknown
73422;BME280;61637;47.760;-122.022;2022-09-13T01:22:09;101253.06099999999;;;21.9;unknown
73422;BME280;61637;47.760;-122.022;2022-09-13T01:24:08;101253.06099999999;;;21.8;unknown
73422;BME280;61637;47.760;-122.022;2022-09-13T01:28:09;101253.06099999999;;;21.7;unknown
73422;BME280;61637;47.760;-122.022;2022-09-13T01:30:04;101253.06099999999;;;21.7;unknown
73422;BME280;61637;47.760;-122.022;2022-09-13T01:32:02;101253.06099999999;;;21.6;unknown
73422;BME280;61637;47.760;-122.022;2022-09-13T01:34:04;101253.06099999999;;;21.6;unknown
73422;BME280;61637;47.760;-122.022;2022-09-13T01:36:05;101253.06099999999;;;21.6;unknown
73422;BME280;61637;47.760;-122.022;2022-09-13T01:38:01;101253.06099999999;;;21.5;unknown
73422;BME280;61637;47.760;-122.022;2022-09-13T01:40:02;101253.06099999999;;;21.4;unknown
73422;BME280;61637;47.760;-122.022;2022-09-13T01:42:03;101253.06099999999;;;21.4;unknown
73422;BME280;61637;47.760;-122.022;2022-09-13T01:44:03;101253.06099999999;;;21.4;unknown
73422;BME280;61637;47.760;-122.022;2022-09-13T01:46:03;101253.06099999999;;;21.4;unknown
73422;BME280;61637;47.760;-122.022;2022-09-13T01:48:01;101253.06099999999;;;21.3;unknown
73422;BME280;61637;47.760;-122.022;2022-09-13T01:50:06;101253.06099999999;;;21.3;unknown
73422;BME280;61637;47.760;-122.022;2022-09-13T01:52:01;101253.06099999999;;;21.2;unknown
73422;BME280;61637;47.760;-122.022;2022-09-13T01:54:06;101253.06099999999;;;21.1;unknown
73422;BME280;61637;47.760;-122.022;2022-09-13T01:56:03;101253.06099999999;;;21.1;unknown
73422;BME280;61637;47.760;-122.022;2022-09-13T01:58:04;101253.06099999999;;;21.0;unknown
73422;BME280;61637;47.760;-122.022;2022-09-13T02:00:03;101253.06099999999;;;20.9;unknown
73422;BME280;61637;47.760;-122.022;2022-09-13T02:02:01;101253.06099999999;;;20.9;unknown
73422;BME280;61637;47.760;-122.022;2022-09-13T02:04:01;101253.06099999999;;;20.8;unknown
73422;BME280;61637;47.760;-122.022;2022-09-13T02:06:02;101253.06099999999;;;20.8;unknown
73422;BME280;61637;47.760;-122.022;2022-09-13T02:08:01;101253.06099999999;;;20.7;unknown
73422;BME280;61637;47.760;-122.022;2022-09-13T02:10:02;101253.06099999999;;;20.7;unknown
73422;BME280;61637;47.760;-122.022;2022-09-13T02:12:01;101253.06099999999;;;20.6;unknown
73422;BME280;61637;47.760;-122.022;2022-09-13T02:14:01;101253.06099999999;;;20.6;unknown
73422;BME280;61637;47.760;-122.022;2022-09-13T02:16:02;101253.06099999999;;;20.4;unknown
73422;BME280;61637;47.760;-122.022;2022-09-13T02:18:02;101253.06099999999;;;20.4;unknown
73422;BME280;61637;47.760;-122.022;2022-09-13T02:20:01;101253.06099999999;;;20.3;unknown
73422;BME280;61637;47.760;-122.022;2022-09-13T02:22:00;101253.06099999999;;;20.2;unknown
73422;BME280;61637;47.760;-122.022;2022-09-13T02:24:01;101253.06099999999;;;20.0;unknown
73422;BME280;61637;47.760;-122.022;2022-09-13T02:26:00;101253.06099999999;;;19.9;unknown
73422;BME280;61637;47.760;-122.022;2022-09-13T02:28:01;101253.06099999999;;;19.8;unknown
73422;BME280;61637;47.760;-122.022;2022-09-13T02:30:01;101253.06099999999;;;19.7;unknown
73422;BME280;61637;47.760;-122.022;2022-09-13T02:32:03;101253.06099999999;;;19.4;unknown
73422;BME280;61637;47.760;-122.022;2022-09-13T02:34:02;101253.06099999999;;;19.4;unknown
73422;BME280;61637;47.760;-122.022;2022-09-13T02:36:02;101253.06099999999;;;19.3;unknown
73422;BME280;61637;47.760;-122.022;2022-09-13T02:38:01;101253.06099999999;;;19.2;unknown
73422;BME280;61637;47.760;-122.022;2022-09-13T02:40:02;101253.06099999999;;;19.1;unknown
73422;BME280;61637;47.760;-122.022;2022-09-13T02:42:03;101253.06099999999;;;19.0;unknown
73422;BME280;61637;47.760;-122.022;2022-09-13T02:44:01;101253.06099999999;;;18.9;unknown
73422;BME280;61637;47.760;-122.022;2022-09-13T02:46:05;101253.06099999999;;;18.8;unknown
73422;BME280;61637;47.760;-122.022;2022-09-13T02:48:02;101253.06099999999;;;18.8;unknown
73422;BME280;61637;47.760;-122.022;2022-09-13T02:50:05;101253.06099999999;;;18.7;unknown
73422;BME280;61637;47.760;-122.022;2022-09-13T02:52:02;101253.06099999999;;;18.6;unknown
73422;BME280;61637;47.760;-122.022;2022-09-13T02:54:04;101253.06099999999;;;18.4;unknown
73422;BME280;61637;47.760;-122.022;2022-09-13T02:56:02;101253.06099999999;;;18.4;unknown
73422;BME280;61637;47.760;-122.022;2022-09-13T02:58:02;101253.06099999999;;;18.3;unknown
73422;BME280;61637;47.760;-122.022;2022-09-13T03:00:00;101253.06099999999;;;18.1;unknown
73422;BME280;61637;47.760;-122.022;2022-09-13T03:02:01;101253.06099999999;;;18.1;unknown
73422;BME280;61637;47.760;-122.022;2022-09-13T03:04:00;101253.06099999999;;;17.9;unknown
73422;BME280;61637;47.760;-122.022;2022-09-13T03:06:01;101253.06099999999;;;17.8;unknown
73422;BME280;61637;47.760;-122.022;2022-09-13T03:08:00;101253.06099999999;;;17.8;unknown
73422;BME280;61637;47.760;-122.022;2022-09-13T03:10:01;101253.06099999999;;;17.8;unknown
73422;BME280;61637;47.760;-122.022;2022-09-13T03:12:08;101253.06099999999;;;17.7;unknown
73422;BME280;61637;47.760;-122.022;2022-09-13T03:14:05;101253.06099999999;;;17.6;unknown
73422;BME280;61637;47.760;-122.022;2022-09-13T03:16:03;101253.06099999999;;;17.6;unknown
73422;BME280;61637;47.760;-122.022;2022-09-13T03:18:03;101253.06099999999;;;17.5;unknown
73422;BME280;61637;47.760;-122.022;2022-09-13T03:20:02;101253.06099999999;;;17.4;unknown
73422;BME280;61637;47.760;-122.022;2022-09-13T03:22:06;101253.06099999999;;;17.3;unknown
73422;BME280;61637;47.760;-122.022;2022-09-13T03:24:03;101253.06099999999;;;17.3;unknown
73422;BME280;61637;47.760;-122.022;2022-09-13T03:28:02;101253.06099999999;;;17.1;unknown
73422;BME280;61637;47.760;-122.022;2022-09-13T03:30:03;101253.06099999999;;;17.1;unknown
73422;BME280;61637;47.760;-122.022;2022-09-13T03:32:04;101253.06099999999;;;16.9;unknown
73422;BME280;61637;47.760;-122.022;2022-09-13T03:34:03;101253.06099999999;;;16.9;unknown
73422;BME280;61637;47.760;-122.022;2022-09-13T03:36:01;101253.06099999999;;;16.8;unknown
73422;BME280;61637;47.760;-122.022;2022-09-13T03:38:01;101253.06099999999;;;16.7;unknown
73422;BME280;61637;47.760;-122.022;2022-09-13T03:40:02;101253.06099999999;;;16.7;unknown
73422;BME280;61637;47.760;-122.022;2022-09-13T03:42:01;101253.06099999999;;;16.7;unknown
73422;BME280;61637;47.760;-122.022;2022-09-13T03:44:01;101253.06099999999;;;16.6;unknown
73422;BME280;61637;47.760;-122.022;2022-09-13T03:46:02;101253.06099999999;;;16.6;unknown
73422;BME280;61637;47.760;-122.022;2022-09-13T03:48:00;101253.06099999999;;;16.5;unknown
73422;BME280;61637;47.760;-122.022;2022-09-13T03:50:00;101253.06099999999;;;16.5;unknown
73422;BME280;61637;47.760;-122.022;2022-09-13T03:52:00;101253.06099999999;;;16.4;unknown
73422;BME280;61637;47.760;-122.022;2022-09-13T03:54:02;101253.06099999999;;;16.4;unknown
73422;BME280;61637;47.760;-122.022;2022-09-13T03:56:00;101253.06099999999;;;16.3;unknown
73422;BME280;61637;47.760;-122.022;2022-09-13T03:58:00;101253.06099999999;;;16.3;unknown
73422;BME280;61637;47.760;-122.022;2022-09-13T04:00:00;101253.06099999999;;;16.3;unknown
73422;BME280;61637;47.760;-122.022;2022-09-13T04:02:00;101253.06099999999;;;16.3;unknown
73422;BME280;61637;47.760;-122.022;2022-09-13T04:04:00;101253.06099999999;;;16.2;unknown
73422;BME280;61637;47.760;-122.022;2022-09-13T04:06:00;101253.06099999999;;;16.2;unknown
73422;BME280;61637;47.760;-122.022;2022-09-13T04:08:02;101253.06099999999;;;16.2;unknown
73422;BME280;61637;47.760;-122.022;2022-09-13T04:10:00;101253.06099999999;;;16.1;unknown
73422;BME280;61637;47.760;-122.022;2022-09-13T04:12:00;101253.06099999999;;;16.1;unknown
73422;BME280;61637;47.760;-122.022;2022-09-13T04:14:00;101253.06099999999;;;16.0;unknown
73422;BME280;61637;47.760;-122.022;2022-09-13T04:16:00;101253.06099999999;;;16.0;unknown
73422;BME280;61637;47.760;-122.022;2022-09-13T04:18:00;101253.06099999999;;;15.9;unknown
73422;BME280;61637;47.760;-122.022;2022-09-13T04:20:01;101253.06099999999;;;15.9;unknown
73422;BME280;61637;47.760;-122.022;2022-09-13T04:22:00;101253.06099999999;;;15.9;unknown
73422;BME280;61637;47.760;-122.022;2022-09-13T04:24:00;101253.06099999999;;;15.8;unknown
73422;BME280;61637;47.760;-122.022;2022-09-13T04:26:01;101253.06099999999;;;15.8;unknown
73422;BME280;61637;47.760;-122.022;2022-09-13T04:28:00;101253.06099999999;;;15.8;unknown
73422;BME280;61637;47.760;-122.022;2022-09-13T04:30:01;101253.06099999999;;;15.8;unknown
73422;BME280;61637;47.760;-122.022;2022-09-13T04:32:00;101253.06099999999;;;15.7;unknown
73422;BME280;61637;47.760;-122.022;2022-09-13T04:34:00;101253.06099999999;;;15.7;unknown
73422;BME280;61637;47.760;-122.022;2022-09-13T04:36:00;101253.06099999999;;;15.7;unknown
73422;BME280;61637;47.760;-122.022;2022-09-13T04:38:00;101253.06099999999;;;15.7;unknown
73422;BME280;61637;47.760;-122.022;2022-09-13T04:40:00;101253.06099999999;;;15.7;unknown
73422;BME280;61637;47.760;-122.022;2022-09-13T04:42:00;101253.06099999999;;;15.6;unknown
73422;BME280;61637;47.760;-122.022;2022-09-13T04:44:01;101253.06099999999;;;15.6;unknown
73422;BME280;61637;47.760;-122.022;2022-09-13T04:46:00;101253.06099999999;;;15.6;unknown
73422;BME280;61637;47.760;-122.022;2022-09-13T04:48:00;101253.06099999999;;;15.6;unknown
73422;BME280;61637;47.760;-122.022;2022-09-13T04:50:00;101253.06099999999;;;15.6;unknown
73422;BME280;61637;47.760;-122.022;2022-09-13T04:52:00;101253.06099999999;;;15.6;unknown
73422;BME280;61637;47.760;-122.022;2022-09-13T04:54:01;101253.06099999999;;;15.6;unknown
73422;BME280;61637;47.760;-122.022;2022-09-13T04:56:00;101253.06099999999;;;15.6;unknown
73422;BME280;61637;47.760;-122.022;2022-09-13T04:58:00;101253.06099999999;;;15.6;unknown
73422;BME280;61637;47.760;-122.022;2022-09-13T05:00:00;101253.06099999999;;;15.6;unknown
73422;BME280;61637;47.760;-122.022;2022-09-13T05:02:00;101253.06099999999;;;15.7;unknown
73422;BME280;61637;47.760;-122.022;2022-09-13T05:04:00;101253.06099999999;;;15.7;unknown
73422;BME280;61637;47.760;-122.022;2022-09-13T05:06:02;101253.06099999999;;;15.7;unknown
73422;BME280;61637;47.760;-122.022;2022-09-13T05:08:01;101253.06099999999;;;15.7;unknown
73422;BME280;61637;47.760;-122.022;2022-09-13T05:10:00;101253.06099999999;;;15.7;unknown
73422;BME280;61637;47.760;-122.022;2022-09-13T05:12:00;101253.06099999999;;;15.7;unknown
73422;BME280;61637;47.760;-122.022;2022-09-13T05:14:01;101253.06099999999;;;15.8;unknown
73422;BME280;61637;47.760;-122.022;2022-09-13T05:16:01;101253.06099999999;;;15.8;unknown
73422;BME280;61637;47.760;-122.022;2022-09-13T05:18:00;101253.06099999999;;;15.8;unknown
73422;BME280;61637;47.760;-122.022;2022-09-13T05:20:00;101253.06099999999;;;15.8;unknown
73422;BME280;61637;47.760;-122.022;2022-09-13T05:22:00;101253.06099999999;;;15.8;unknown
73422;BME280;61637;47.760;-122.022;2022-09-13T05:24:00;101253.06099999999;;;15.8;unknown
73422;BME280;61637;47.760;-122.022;2022-09-13T05:26:01;101253.06099999999;;;15.8;unknown
73422;BME280;61637;47.760;-122.022;2022-09-13T05:28:00;101253.06099999999;;;15.8;unknown
73422;BME280;61637;47.760;-122.022;2022-09-13T05:30:00;101253.06099999999;;;15.8;unknown
73422;BME280;61637;47.760;-122.022;2022-09-13T05:32:00;101253.06099999999;;;15.9;unknown
73422;BME280;61637;47.760;-122.022;2022-09-13T05:34:01;101253.06099999999;;;15.8;unknown
73422;BME280;61637;47.760;-122.022;2022-09-13T05:36:00;101253.06099999999;;;15.8;unknown
73422;BME280;61637;47.760;-122.022;2022-09-13T05:38:00;101253.06099999999;;;15.8;unknown
73422;BME280;61637;47.760;-122.022;2022-09-13T05:40:00;101253.06099999999;;;15.8;unknown
73422;BME280;61637;47.760;-122.022;2022-09-13T05:42:00;101253.06099999999;;;15.8;unknown
73422;BME280;61637;47.760;-122.022;2022-09-13T05:44:01;101253.06099999999;;;15.8;unknown
73422;BME280;61637;47.760;-122.022;2022-09-13T05:46:01;101253.06099999999;;;15.8;unknown
73422;BME280;61637;47.760;-122.022;2022-09-13T05:48:00;101253.06099999999;;;15.8;unknown
73422;BME280;61637;47.760;-122.022;2022-09-13T05:50:00;101253.06099999999;;;15.8;unknown
73422;BME280;61637;47.760;-122.022;2022-09-13T05:52:00;101253.06099999999;;;15.8;unknown
73422;BME280;61637;47.760;-122.022;2022-09-13T05:54:01;101253.06099999999;;;15.8;unknown
73422;BME280;61637;47.760;-122.022;2022-09-13T05:56:01;101253.06099999999;;;15.8;unknown
73422;BME280;61637;47.760;-122.022;2022-09-13T05:58:00;101253.06099999999;;;15.8;unknown
73422;BME280;61637;47.760;-122.022;2022-09-13T06:00:00;101253.06099999999;;;15.9;unknown
73422;BME280;61637;47.760;-122.022;2022-09-13T06:02:00;101253.06099999999;;;16.1;unknown
73422;BME280;61637;47.760;-122.022;2022-09-13T06:04:00;101253.06099999999;;;16.2;unknown
73422;BME280;61637;47.760;-122.022;2022-09-13T06:06:00;101253.06099999999;;;16.2;unknown
73422;BME280;61637;47.760;-122.022;2022-09-13T06:08:00;101253.06099999999;;;16.2;unknown
73422;BME280;61637;47.760;-122.022;2022-09-13T06:10:00;101253.06099999999;;;16.2;unknown
73422;BME280;61637;47.760;-122.022;2022-09-13T06:12:00;101253.06099999999;;;16.2;unknown
73422;BME280;61637;47.760;-122.022;2022-09-13T06:14:00;101253.06099999999;;;16.2;unknown
73422;BME280;61637;47.760;-122.022;2022-09-13T06:16:01;101253.06099999999;;;16.2;unknown
73422;BME280;61637;47.760;-122.022;2022-09-13T06:18:00;101253.06099999999;;;16.2;unknown
73422;BME280;61637;47.760;-122.022;2022-09-13T06:20:00;101253.06099999999;;;16.3;unknown
73422;BME280;61637;47.760;-122.022;2022-09-13T06:22:00;101253.06099999999;;;16.3;unknown
73422;BME280;61637;47.760;-122.022;2022-09-13T06:24:00;101253.06099999999;;;16.3;unknown
73422;BME280;61637;47.760;-122.022;2022-09-13T06:26:01;101253.06099999999;;;16.3;unknown
73422;BME280;61637;47.760;-122.022;2022-09-13T06:28:00;101253.06099999999;;;16.2;unknown
73422;BME280;61637;47.760;-122.022;2022-09-13T06:30:00;101253.06099999999;;;16.2;unknown
73422;BME280;61637;47.760;-122.022;2022-09-13T06:32:01;101253.06099999999;;;16.2;unknown
73422;BME280;61637;47.760;-122.022;2022-09-13T06:34:00;101253.06099999999;;;16.2;unknown
73422;BME280;61637;47.760;-122.022;2022-09-13T06:36:00;101253.06099999999;;;16.2;unknown
73422;BME280;61637;47.760;-122.022;2022-09-13T06:38:00;101253.06099999999;;;16.1;unknown
73422;BME280;61637;47.760;-122.022;2022-09-13T06:40:00;101253.06099999999;;;16.1;unknown
73422;BME280;61637;47.760;-122.022;2022-09-13T06:42:01;101253.06099999999;;;16.1;unknown
73422;BME280;61637;47.760;-122.022;2022-09-13T06:44:00;101253.06099999999;;;16.1;unknown
73422;BME280;61637;47.760;-122.022;2022-09-13T06:46:00;101253.06099999999;;;16.1;unknown
73422;BME280;61637;47.760;-122.022;2022-09-13T06:48:00;101253.06099999999;;;16.1;unknown
73422;BME280;61637;47.760;-122.022;2022-09-13T06:50:00;101253.06099999999;;;16.1;unknown
73422;BME280;61637;47.760;-122.022;2022-09-13T06:52:00;101253.06099999999;;;16.1;unknown
73422;BME280;61637;47.760;-122.022;2022-09-13T06:54:01;101253.06099999999;;;16.1;unknown
73422;BME280;61637;47.760;-122.022;2022-09-13T06:56:01;101253.06099999999;;;16.1;unknown
73422;BME280;61637;47.760;-122.022;2022-09-13T06:58:00;101253.06099999999;;;16.1;unknown
73422;BME280;61637;47.760;-122.022;2022-09-13T07:00:00;101253.06099999999;;;16.0;unknown
73422;BME280;61637;47.760;-122.022;2022-09-13T07:02:00;101253.06099999999;;;16.1;unknown
73422;BME280;61637;47.760;-122.022;2022-09-13T07:04:01;101253.06099999999;;;16.1;unknown
73422;BME280;61637;47.760;-122.022;2022-09-13T07:06:05;101253.06099999999;;;16.1;unknown
73422;BME280;61637;47.760;-122.022;2022-09-13T07:08:00;101253.06099999999;;;16.1;unknown
73422;BME280;61637;47.760;-122.022;2022-09-13T07:10:00;101253.06099999999;;;16.1;unknown
73422;BME280;61637;47.760;-122.022;2022-09-13T07:12:00;101253.06099999999;;;16.1;unknown
73422;BME280;61637;47.760;-122.022;2022-09-13T07:14:00;101253.06099999999;;;16.1;unknown
73422;BME280;61637;47.760;-122.022;2022-09-13T07:16:00;101253.06099999999;;;16.0;unknown
73422;BME280;61637;47.760;-122.022;2022-09-13T07:18:00;101253.06099999999;;;16.0;unknown
73422;BME280;61637;47.760;-122.022;2022-09-13T07:20:00;101253.06099999999;;;16.0;unknown
73422;BME280;61637;47.760;-122.022;2022-09-13T07:22:00;101253.06099999999;;;16.0;unknown
73422;BME280;61637;47.760;-122.022;2022-09-13T07:24:00;101253.06099999999;;;16.0;unknown
73422;BME280;61637;47.760;-122.022;2022-09-13T07:26:01;101253.06099999999;;;16.0;unknown
73422;BME280;61637;47.760;-122.022;2022-09-13T07:28:00;101253.06099999999;;;16.0;unknown
73422;BME280;61637;47.760;-122.022;2022-09-13T07:30:00;101253.06099999999;;;16.0;unknown
73422;BME280;61637;47.760;-122.022;2022-09-13T07:32:00;101253.06099999999;;;16.0;unknown
73422;BME280;61637;47.760;-122.022;2022-09-13T07:34:01;101253.06099999999;;;15.9;unknown
73422;BME280;61637;47.760;-122.022;2022-09-13T07:36:00;101253.06099999999;;;16.0;unknown
73422;BME280;61637;47.760;-122.022;2022-09-13T07:38:00;101253.06099999999;;;16.0;unknown
73422;BME280;61637;47.760;-122.022;2022-09-13T07:40:00;101253.06099999999;;;16.0;unknown
73422;BME280;61637;47.760;-122.022;2022-09-13T07:42:00;101253.06099999999;;;16.1;unknown
73422;BME280;61637;47.760;-122.022;2022-09-13T07:44:00;101253.06099999999;;;16.1;unknown
73422;BME280;61637;47.760;-122.022;2022-09-13T07:46:01;101253.06099999999;;;16.2;unknown
73422;BME280;61637;47.760;-122.022;2022-09-13T07:48:00;101253.06099999999;;;16.2;unknown
73422;BME280;61637;47.760;-122.022;2022-09-13T07:50:00;101253.06099999999;;;16.2;unknown
73422;BME280;61637;47.760;-122.022;2022-09-13T07:52:00;101253.06099999999;;;16.3;unknown
73422;BME280;61637;47.760;-122.022;2022-09-13T07:54:02;101253.06099999999;;;16.2;unknown
73422;BME280;61637;47.760;-122.022;2022-09-13T07:56:01;101253.06099999999;;;16.2;unknown
73422;BME280;61637;47.760;-122.022;2022-09-13T07:58:00;101253.06099999999;;;16.2;unknown
73422;BME280;61637;47.760;-122.022;2022-09-13T08:00:00;101253.06099999999;;;16.1;unknown
73422;BME280;61637;47.760;-122.022;2022-09-13T08:02:00;101253.06099999999;;;16.1;unknown
73422;BME280;61637;47.760;-122.022;2022-09-13T08:04:01;101253.06099999999;;;16.0;unknown
73422;BME280;61637;47.760;-122.022;2022-09-13T08:06:01;101253.06099999999;;;15.9;unknown
73422;BME280;61637;47.760;-122.022;2022-09-13T08:08:00;101253.06099999999;;;15.9;unknown
73422;BME280;61637;47.760;-122.022;2022-09-13T08:10:00;101253.06099999999;;;15.9;unknown
73422;BME280;61637;47.760;-122.022;2022-09-13T08:12:00;101253.06099999999;;;15.8;unknown
73422;BME280;61637;47.760;-122.022;2022-09-13T08:14:00;101253.06099999999;;;15.8;unknown
73422;BME280;61637;47.760;-122.022;2022-09-13T08:16:01;101253.06099999999;;;15.8;unknown
73422;BME280;61637;47.760;-122.022;2022-09-13T08:18:00;101253.06099999999;;;15.8;unknown
73422;BME280;61637;47.760;-122.022;2022-09-13T08:20:00;101253.06099999999;;;15.8;unknown
73422;BME280;61637;47.760;-122.022;2022-09-13T08:22:00;101253.06099999999;;;15.8;unknown
73422;BME280;61637;47.760;-122.022;2022-09-13T08:24:00;101253.06099999999;;;15.8;unknown
73422;BME280;61637;47.760;-122.022;2022-09-13T08:26:00;101253.06099999999;;;15.7;unknown
73422;BME280;61637;47.760;-122.022;2022-09-13T08:28:00;101253.06099999999;;;15.7;unknown
73422;BME280;61637;47.760;-122.022;2022-09-13T08:30:00;101253.06099999999;;;15.7;unknown
73422;BME280;61637;47.760;-122.022;2022-09-13T08:32:00;101253.06099999999;;;15.7;unknown
73422;BME280;61637;47.760;-122.022;2022-09-13T08:34:00;101253.06099999999;;;15.7;unknown
73422;BME280;61637;47.760;-122.022;2022-09-13T08:36:01;101253.06099999999;;;15.7;unknown
73422;BME280;61637;47.760;-122.022;2022-09-13T08:38:00;101253.06099999999;;;15.7;unknown
73422;BME280;61637;47.760;-122.022;2022-09-13T08:40:00;101253.06099999999;;;15.7;unknown
73422;BME280;61637;47.760;-122.022;2022-09-13T08:42:07;101253.06099999999;;;15.7;unknown
73422;BME280;61637;47.760;-122.022;2022-09-13T08:44:02;101253.06099999999;;;15.7;unknown
73422;BME280;61637;47.760;-122.022;2022-09-13T08:46:01;101253.06099999999;;;15.7;unknown
73422;BME280;61637;47.760;-122.022;2022-09-13T08:48:01;101253.06099999999;;;15.7;unknown
73422;BME280;61637;47.760;-122.022;2022-09-13T08:50:03;101253.06099999999;;;15.7;unknown
73422;BME280;61637;47.760;-122.022;2022-09-13T08:52:02;101253.06099999999;;;15.7;unknown
73422;BME280;61637;47.760;-122.022;2022-09-13T08:54:00;101253.06099999999;;;15.6;unknown
73422;BME280;61637;47.760;-122.022;2022-09-13T08:56:01;101253.06099999999;;;15.6;unknown
73422;BME280;61637;47.760;-122.022;2022-09-13T08:58:02;101253.06099999999;;;15.6;unknown